sensor_id;sensor_type;location;lat;lon;timestamp;P1;durP1;ratioP1;P2;durP2;ratioP2
21148;SDS011;10732;51.472;6.466;2023-04-03T00:01:12;10.93;;;7.60;;
21148;SDS011;10732;51.472;6.466;2023-04-03T00:03:37;9.27;;;7.60;;
21148;SDS011;10732;51.472;6.466;2023-04-03T00:06:03;10.10;;;7.70;;
21148;SDS011;10732;51.472;6.466;2023-04-03T00:08:31;7.90;;;7.10;;
21148;SDS011;10732;51.472;6.466;2023-04-03T00:10:57;9.63;;;7.63;;
21148;SDS011;10732;51.472;6.466;2023-04-03T00:13:23;9.97;;;7.93;;
21148;SDS011;10732;51.472;6.466;2023-04-03T00:15:50;8.03;;;7.23;;
21148;SDS011;10732;51.472;6.466;2023-04-03T00:18:16;9.80;;;8.13;;
21148;SDS011;10732;51.472;6.466;2023-04-03T00:20:41;9.20;;;7.93;;
21148;SDS011;10732;51.472;6.466;2023-04-03T00:23:07;12.60;;;8.70;;
21148;SDS011;10732;51.472;6.466;2023-04-03T00:25:32;9.70;;;8.70;;
21148;SDS011;10732;51.472;6.466;2023-04-03T00:27:58;13.30;;;9.50;;
21148;SDS011;10732;51.472;6.466;2023-04-03T00:30:24;12.00;;;10.53;;
21148;SDS011;10732;51.472;6.466;2023-04-03T00:32:50;12.03;;;10.33;;
21148;SDS011;10732;51.472;6.466;2023-04-03T00:35:17;13.30;;;10.63;;
21148;SDS011;10732;51.472;6.466;2023-04-03T00:37:44;14.63;;;11.00;;
21148;SDS011;10732;51.472;6.466;2023-04-03T00:40:12;13.33;;;11.10;;
21148;SDS011;10732;51.472;6.466;2023-04-03T00:42:43;11.63;;;10.43;;
21148;SDS011;10732;51.472;6.466;2023-04-03T00:47:36;14.00;;;11.33;;
21148;SDS011;10732;51.472;6.466;2023-04-03T00:50:03;13.70;;;12.03;;
21148;SDS011;10732;51.472;6.466;2023-04-03T00:52:29;14.43;;;12.20;;
21148;SDS011;10732;51.472;6.466;2023-04-03T00:55:00;13.00;;;11.53;;
21148;SDS011;10732;51.472;6.466;2023-04-03T00:57:29;13.40;;;12.07;;
21148;SDS011;10732;51.472;6.466;2023-04-03T00:59:57;13.77;;;11.53;;
21148;SDS011;10732;51.472;6.466;2023-04-03T01:02:26;15.23;;;12.87;;
21148;SDS011;10732;51.472;6.466;2023-04-03T01:04:52;15.17;;;12.73;;
21148;SDS011;10732;51.472;6.466;2023-04-03T01:07:19;16.27;;;13.00;;
21148;SDS011;10732;51.472;6.466;2023-04-03T01:09:53;15.97;;;13.30;;
21148;SDS011;10732;51.472;6.466;2023-04-03T01:14:51;16.03;;;13.23;;
21148;SDS011;10732;51.472;6.466;2023-04-03T01:25:35;18.50;;;14.30;;
21148;SDS011;10732;51.472;6.466;2023-04-03T01:28:03;19.53;;;14.00;;
21148;SDS011;10732;51.472;6.466;2023-04-03T01:30:31;16.80;;;14.73;;
21148;SDS011;10732;51.472;6.466;2023-04-03T01:33:02;17.23;;;15.43;;
21148;SDS011;10732;51.472;6.466;2023-04-03T01:35:28;18.27;;;15.57;;
21148;SDS011;10732;51.472;6.466;2023-04-03T01:37:53;18.53;;;15.97;;
21148;SDS011;10732;51.472;6.466;2023-04-03T01:40:19;19.30;;;16.70;;
21148;SDS011;10732;51.472;6.466;2023-04-03T01:42:45;19.30;;;16.80;;
21148;SDS011;10732;51.472;6.466;2023-04-03T01:45:10;23.30;;;18.23;;
21148;SDS011;10732;51.472;6.466;2023-04-03T01:47:36;19.90;;;17.03;;
21148;SDS011;10732;51.472;6.466;2023-04-03T01:50:02;20.47;;;17.30;;
21148;SDS011;10732;51.472;6.466;2023-04-03T01:52:28;18.60;;;16.33;;
21148;SDS011;10732;51.472;6.466;2023-04-03T01:54:55;18.60;;;16.00;;
21148;SDS011;10732;51.472;6.466;2023-04-03T01:57:20;20.27;;;14.67;;
21148;SDS011;10732;51.472;6.466;2023-04-03T01:59:46;18.67;;;14.80;;
21148;SDS011;10732;51.472;6.466;2023-04-03T02:02:11;16.80;;;14.23;;
21148;SDS011;10732;51.472;6.466;2023-04-03T02:04:37;16.13;;;13.53;;
21148;SDS011;10732;51.472;6.466;2023-04-03T02:07:03;15.00;;;12.67;;
21148;SDS011;10732;51.472;6.466;2023-04-03T02:09:29;16.63;;;11.60;;
21148;SDS011;10732;51.472;6.466;2023-04-03T02:11:54;13.47;;;11.10;;
21148;SDS011;10732;51.472;6.466;2023-04-03T02:14:20;11.87;;;9.93;;
21148;SDS011;10732;51.472;6.466;2023-04-03T02:16:46;12.40;;;8.70;;
21148;SDS011;10732;51.472;6.466;2023-04-03T02:19:12;14.23;;;8.00;;
21148;SDS011;10732;51.472;6.466;2023-04-03T02:21:38;10.73;;;7.30;;
21148;SDS011;10732;51.472;6.466;2023-04-03T02:24:03;12.90;;;7.30;;
21148;SDS011;10732;51.472;6.466;2023-04-03T02:26:30;8.67;;;6.40;;
21148;SDS011;10732;51.472;6.466;2023-04-03T02:28:55;9.50;;;5.60;;
21148;SDS011;10732;51.472;6.466;2023-04-03T02:31:21;6.87;;;5.23;;
21148;SDS011;10732;51.472;6.466;2023-04-03T02:33:47;8.83;;;5.23;;
21148;SDS011;10732;51.472;6.466;2023-04-03T02:36:13;7.93;;;5.00;;
21148;SDS011;10732;51.472;6.466;2023-04-03T02:38:38;8.37;;;4.50;;
21148;SDS011;10732;51.472;6.466;2023-04-03T02:41:05;10.33;;;5.13;;
21148;SDS011;10732;51.472;6.466;2023-04-03T02:43:32;8.80;;;4.47;;
21148;SDS011;10732;51.472;6.466;2023-04-03T02:45:58;9.97;;;4.67;;
21148;SDS011;10732;51.472;6.466;2023-04-03T02:48:23;7.90;;;4.60;;
21148;SDS011;10732;51.472;6.466;2023-04-03T02:50:49;6.27;;;3.90;;
21148;SDS011;10732;51.472;6.466;2023-04-03T02:53:15;6.47;;;3.80;;
21148;SDS011;10732;51.472;6.466;2023-04-03T02:55:40;10.47;;;3.87;;
21148;SDS011;10732;51.472;6.466;2023-04-03T02:58:06;7.27;;;4.00;;
21148;SDS011;10732;51.472;6.466;2023-04-03T03:00:32;6.50;;;3.17;;
21148;SDS011;10732;51.472;6.466;2023-04-03T03:02:58;8.47;;;3.77;;
21148;SDS011;10732;51.472;6.466;2023-04-03T03:05:23;7.87;;;3.40;;
21148;SDS011;10732;51.472;6.466;2023-04-03T03:07:49;7.07;;;3.47;;
21148;SDS011;10732;51.472;6.466;2023-04-03T03:10:15;8.80;;;3.60;;
21148;SDS011;10732;51.472;6.466;2023-04-03T03:12:40;6.30;;;3.30;;
21148;SDS011;10732;51.472;6.466;2023-04-03T03:15:06;6.43;;;3.10;;
21148;SDS011;10732;51.472;6.466;2023-04-03T03:17:32;5.97;;;3.43;;
21148;SDS011;10732;51.472;6.466;2023-04-03T03:19:58;7.63;;;3.20;;
21148;SDS011;10732;51.472;6.466;2023-04-03T03:22:23;6.27;;;3.07;;
21148;SDS011;10732;51.472;6.466;2023-04-03T03:24:49;8.17;;;3.17;;
21148;SDS011;10732;51.472;6.466;2023-04-03T03:27:15;8.50;;;3.30;;
21148;SDS011;10732;51.472;6.466;2023-04-03T03:29:41;7.67;;;3.20;;
21148;SDS011;10732;51.472;6.466;2023-04-03T03:32:06;7.90;;;2.93;;
21148;SDS011;10732;51.472;6.466;2023-04-03T03:34:32;7.07;;;3.17;;
21148;SDS011;10732;51.472;6.466;2023-04-03T03:36:58;6.43;;;3.03;;
21148;SDS011;10732;51.472;6.466;2023-04-03T03:39:24;6.03;;;2.60;;
21148;SDS011;10732;51.472;6.466;2023-04-03T03:41:49;9.67;;;3.30;;
21148;SDS011;10732;51.472;6.466;2023-04-03T03:44:15;6.77;;;2.77;;
21148;SDS011;10732;51.472;6.466;2023-04-03T03:46:40;7.93;;;2.93;;
21148;SDS011;10732;51.472;6.466;2023-04-03T03:49:06;5.43;;;2.93;;
21148;SDS011;10732;51.472;6.466;2023-04-03T03:51:32;6.13;;;2.77;;
21148;SDS011;10732;51.472;6.466;2023-04-03T03:53:57;7.70;;;3.00;;
21148;SDS011;10732;51.472;6.466;2023-04-03T03:56:23;6.40;;;2.83;;
21148;SDS011;10732;51.472;6.466;2023-04-03T03:58:48;7.43;;;2.90;;
21148;SDS011;10732;51.472;6.466;2023-04-03T04:01:14;7.00;;;2.93;;
21148;SDS011;10732;51.472;6.466;2023-04-03T04:03:40;8.83;;;2.77;;
21148;SDS011;10732;51.472;6.466;2023-04-03T04:06:06;7.67;;;2.77;;
21148;SDS011;10732;51.472;6.466;2023-04-03T04:08:31;7.97;;;2.63;;
21148;SDS011;10732;51.472;6.466;2023-04-03T04:10:57;4.87;;;2.50;;
21148;SDS011;10732;51.472;6.466;2023-04-03T04:13:23;7.67;;;2.70;;
21148;SDS011;10732;51.472;6.466;2023-04-03T04:15:48;5.63;;;2.50;;
21148;SDS011;10732;51.472;6.466;2023-04-03T04:18:14;6.77;;;2.87;;
21148;SDS011;10732;51.472;6.466;2023-04-03T04:20:39;6.37;;;2.77;;
21148;SDS011;10732;51.472;6.466;2023-04-03T04:23:05;5.30;;;3.00;;
21148;SDS011;10732;51.472;6.466;2023-04-03T04:25:31;6.90;;;3.17;;
21148;SDS011;10732;51.472;6.466;2023-04-03T04:27:57;7.13;;;2.97;;
21148;SDS011;10732;51.472;6.466;2023-04-03T04:30:23;7.33;;;2.73;;
21148;SDS011;10732;51.472;6.466;2023-04-03T04:32:48;7.50;;;2.90;;
21148;SDS011;10732;51.472;6.466;2023-04-03T04:35:14;5.83;;;2.87;;
21148;SDS011;10732;51.472;6.466;2023-04-03T04:37:40;7.90;;;3.07;;
21148;SDS011;10732;51.472;6.466;2023-04-03T04:40:06;10.27;;;3.10;;
21148;SDS011;10732;51.472;6.466;2023-04-03T04:42:32;7.47;;;3.20;;
21148;SDS011;10732;51.472;6.466;2023-04-03T04:44:57;5.50;;;2.80;;
21148;SDS011;10732;51.472;6.466;2023-04-03T04:47:23;6.77;;;2.80;;
21148;SDS011;10732;51.472;6.466;2023-04-03T04:49:48;8.40;;;3.10;;
21148;SDS011;10732;51.472;6.466;2023-04-03T04:52:14;9.23;;;2.83;;
21148;SDS011;10732;51.472;6.466;2023-04-03T04:54:40;5.93;;;2.70;;
21148;SDS011;10732;51.472;6.466;2023-04-03T04:57:05;7.47;;;2.67;;
21148;SDS011;10732;51.472;6.466;2023-04-03T04:59:31;6.23;;;3.10;;
21148;SDS011;10732;51.472;6.466;2023-04-03T05:01:57;11.03;;;3.50;;
21148;SDS011;10732;51.472;6.466;2023-04-03T05:04:23;5.87;;;3.20;;
21148;SDS011;10732;51.472;6.466;2023-04-03T05:06:48;7.53;;;3.30;;
21148;SDS011;10732;51.472;6.466;2023-04-03T05:09:14;6.50;;;3.23;;
21148;SDS011;10732;51.472;6.466;2023-04-03T05:11:40;7.00;;;3.37;;
21148;SDS011;10732;51.472;6.466;2023-04-03T05:14:05;7.17;;;3.43;;
21148;SDS011;10732;51.472;6.466;2023-04-03T05:16:32;8.80;;;3.60;;
21148;SDS011;10732;51.472;6.466;2023-04-03T05:18:58;7.07;;;3.10;;
21148;SDS011;10732;51.472;6.466;2023-04-03T05:21:23;7.53;;;3.00;;
21148;SDS011;10732;51.472;6.466;2023-04-03T05:23:51;6.87;;;2.87;;
21148;SDS011;10732;51.472;6.466;2023-04-03T05:26:16;5.90;;;2.57;;
21148;SDS011;10732;51.472;6.466;2023-04-03T05:28:42;10.07;;;2.60;;
21148;SDS011;10732;51.472;6.466;2023-04-03T05:31:08;7.53;;;2.30;;
21148;SDS011;10732;51.472;6.466;2023-04-03T05:33:34;5.05;;;2.20;;
21148;SDS011;10732;51.472;6.466;2023-04-03T05:36:03;6.72;;;2.33;;
21148;SDS011;10732;51.472;6.466;2023-04-03T05:38:29;5.05;;;2.65;;
21148;SDS011;10732;51.472;6.466;2023-04-03T05:40:55;8.02;;;2.35;;
21148;SDS011;10732;51.472;6.466;2023-04-03T05:43:20;7.38;;;2.67;;
21148;SDS011;10732;51.472;6.466;2023-04-03T05:45:47;4.60;;;2.20;;
21148;SDS011;10732;51.472;6.466;2023-04-03T05:48:12;5.70;;;2.10;;
21148;SDS011;10732;51.472;6.466;2023-04-03T05:50:38;7.15;;;2.58;;
21148;SDS011;10732;51.472;6.466;2023-04-03T05:53:06;7.40;;;2.38;;
21148;SDS011;10732;51.472;6.466;2023-04-03T05:55:37;8.00;;;2.40;;
21148;SDS011;10732;51.472;6.466;2023-04-03T05:58:03;7.50;;;2.50;;
21148;SDS011;10732;51.472;6.466;2023-04-03T06:00:28;5.75;;;2.40;;
21148;SDS011;10732;51.472;6.466;2023-04-03T06:02:54;5.28;;;2.08;;
21148;SDS011;10732;51.472;6.466;2023-04-03T06:05:19;6.57;;;2.65;;
21148;SDS011;10732;51.472;6.466;2023-04-03T06:07:45;7.20;;;2.63;;
21148;SDS011;10732;51.472;6.466;2023-04-03T06:10:12;6.43;;;2.45;;
21148;SDS011;10732;51.472;6.466;2023-04-03T06:12:37;7.50;;;2.35;;
21148;SDS011;10732;51.472;6.466;2023-04-03T06:15:03;7.25;;;2.60;;
21148;SDS011;10732;51.472;6.466;2023-04-03T06:17:29;9.25;;;2.85;;
21148;SDS011;10732;51.472;6.466;2023-04-03T06:19:55;5.65;;;2.50;;
21148;SDS011;10732;51.472;6.466;2023-04-03T06:22:22;7.35;;;2.67;;
21148;SDS011;10732;51.472;6.466;2023-04-03T06:24:50;7.00;;;2.70;;
21148;SDS011;10732;51.472;6.466;2023-04-03T06:27:16;6.40;;;2.47;;
21148;SDS011;10732;51.472;6.466;2023-04-03T06:29:41;8.67;;;3.10;;
21148;SDS011;10732;51.472;6.466;2023-04-03T06:32:08;9.30;;;2.70;;
21148;SDS011;10732;51.472;6.466;2023-04-03T06:34:33;6.27;;;2.50;;
21148;SDS011;10732;51.472;6.466;2023-04-03T06:36:59;8.60;;;3.00;;
21148;SDS011;10732;51.472;6.466;2023-04-03T06:39:24;6.87;;;3.00;;
21148;SDS011;10732;51.472;6.466;2023-04-03T06:41:50;6.63;;;2.97;;
21148;SDS011;10732;51.472;6.466;2023-04-03T06:44:16;6.37;;;2.60;;
21148;SDS011;10732;51.472;6.466;2023-04-03T06:46:42;6.05;;;2.30;;
21148;SDS011;10732;51.472;6.466;2023-04-03T06:49:08;5.05;;;2.38;;
21148;SDS011;10732;51.472;6.466;2023-04-03T06:51:35;4.07;;;2.28;;
21148;SDS011;10732;51.472;6.466;2023-04-03T06:54:01;7.75;;;2.40;;
21148;SDS011;10732;51.472;6.466;2023-04-03T06:56:27;5.35;;;2.30;;
21148;SDS011;10732;51.472;6.466;2023-04-03T06:58:54;4.93;;;2.03;;
21148;SDS011;10732;51.472;6.466;2023-04-03T07:01:22;7.00;;;2.67;;
21148;SDS011;10732;51.472;6.466;2023-04-03T07:03:50;5.03;;;2.17;;
21148;SDS011;10732;51.472;6.466;2023-04-03T07:06:16;5.70;;;2.47;;
21148;SDS011;10732;51.472;6.466;2023-04-03T07:08:43;7.10;;;2.53;;
21148;SDS011;10732;51.472;6.466;2023-04-03T07:11:10;5.90;;;2.42;;
21148;SDS011;10732;51.472;6.466;2023-04-03T07:13:36;5.40;;;2.58;;
21148;SDS011;10732;51.472;6.466;2023-04-03T07:16:03;5.75;;;2.15;;
21148;SDS011;10732;51.472;6.466;2023-04-03T07:18:29;4.22;;;2.22;;
21148;SDS011;10732;51.472;6.466;2023-04-03T07:20:55;5.82;;;2.40;;
21148;SDS011;10732;51.472;6.466;2023-04-03T07:23:21;7.53;;;2.45;;
21148;SDS011;10732;51.472;6.466;2023-04-03T07:25:48;4.95;;;2.05;;
21148;SDS011;10732;51.472;6.466;2023-04-03T07:28:16;4.15;;;2.13;;
21148;SDS011;10732;51.472;6.466;2023-04-03T07:30:43;6.88;;;2.20;;
21148;SDS011;10732;51.472;6.466;2023-04-03T07:33:10;7.20;;;2.60;;
21148;SDS011;10732;51.472;6.466;2023-04-03T07:35:36;5.05;;;2.13;;
21148;SDS011;10732;51.472;6.466;2023-04-03T07:38:02;4.50;;;2.38;;
21148;SDS011;10732;51.472;6.466;2023-04-03T07:40:27;6.32;;;2.13;;
21148;SDS011;10732;51.472;6.466;2023-04-03T07:42:53;4.75;;;2.10;;
21148;SDS011;10732;51.472;6.466;2023-04-03T07:45:19;6.55;;;2.22;;
21148;SDS011;10732;51.472;6.466;2023-04-03T07:47:47;6.82;;;2.58;;
21148;SDS011;10732;51.472;6.466;2023-04-03T07:50:13;5.07;;;1.90;;
21148;SDS011;10732;51.472;6.466;2023-04-03T07:52:39;4.68;;;2.22;;
21148;SDS011;10732;51.472;6.466;2023-04-03T07:55:05;6.55;;;2.08;;
21148;SDS011;10732;51.472;6.466;2023-04-03T07:57:31;5.22;;;2.72;;
21148;SDS011;10732;51.472;6.466;2023-04-03T07:59:56;5.88;;;2.20;;
21148;SDS011;10732;51.472;6.466;2023-04-03T08:02:22;6.03;;;2.38;;
21148;SDS011;10732;51.472;6.466;2023-04-03T08:04:48;5.25;;;2.13;;
21148;SDS011;10732;51.472;6.466;2023-04-03T08:07:13;7.82;;;4.03;;
21148;SDS011;10732;51.472;6.466;2023-04-03T08:09:39;9.27;;;4.82;;
21148;SDS011;10732;51.472;6.466;2023-04-03T08:12:04;9.27;;;4.50;;
21148;SDS011;10732;51.472;6.466;2023-04-03T08:14:31;7.30;;;2.47;;
21148;SDS011;10732;51.472;6.466;2023-04-03T08:16:59;10.73;;;5.22;;
21148;SDS011;10732;51.472;6.466;2023-04-03T08:19:25;6.75;;;1.90;;
21148;SDS011;10732;51.472;6.466;2023-04-03T08:21:51;14.50;;;7.35;;
21148;SDS011;10732;51.472;6.466;2023-04-03T08:24:18;7.43;;;2.55;;
21148;SDS011;10732;51.472;6.466;2023-04-03T08:26:44;4.93;;;2.00;;
21148;SDS011;10732;51.472;6.466;2023-04-03T08:29:09;7.43;;;4.70;;
21148;SDS011;10732;51.472;6.466;2023-04-03T08:31:35;7.03;;;3.60;;
21148;SDS011;10732;51.472;6.466;2023-04-03T08:34:00;5.53;;;2.08;;
21148;SDS011;10732;51.472;6.466;2023-04-03T08:36:27;4.18;;;2.42;;
21148;SDS011;10732;51.472;6.466;2023-04-03T08:38:54;5.25;;;2.00;;
21148;SDS011;10732;51.472;6.466;2023-04-03T08:41:29;6.18;;;2.45;;
21148;SDS011;10732;51.472;6.466;2023-04-03T08:44:14;5.13;;;2.03;;
21148;SDS011;10732;51.472;6.466;2023-04-03T08:49:40;4.15;;;1.67;;
21148;SDS011;10732;51.472;6.466;2023-04-03T08:52:12;4.43;;;1.90;;
21148;SDS011;10732;51.472;6.466;2023-04-03T08:54:48;3.60;;;1.75;;
21148;SDS011;10732;51.472;6.466;2023-04-03T08:57:18;5.28;;;1.70;;
21148;SDS011;10732;51.472;6.466;2023-04-03T08:59:51;6.50;;;1.90;;
21148;SDS011;10732;51.472;6.466;2023-04-03T09:03:02;4.38;;;2.05;;
21148;SDS011;10732;51.472;6.466;2023-04-03T09:07:44;2.80;;;1.50;;
21148;SDS011;10732;51.472;6.466;2023-04-03T09:10:14;2.70;;;1.50;;
21148;SDS011;10732;51.472;6.466;2023-04-03T09:12:48;2.78;;;1.40;;
21148;SDS011;10732;51.472;6.466;2023-04-03T09:15:21;3.90;;;1.63;;
21148;SDS011;10732;51.472;6.466;2023-04-03T09:23:29;2.33;;;1.25;;
21148;SDS011;10732;51.472;6.466;2023-04-03T09:28:44;2.22;;;1.30;;
21148;SDS011;10732;51.472;6.466;2023-04-03T09:31:18;1.90;;;1.20;;
21148;SDS011;10732;51.472;6.466;2023-04-03T09:33:49;2.33;;;1.30;;
21148;SDS011;10732;51.472;6.466;2023-04-03T09:39:07;2.90;;;1.08;;
21148;SDS011;10732;51.472;6.466;2023-04-03T09:41:37;2.70;;;1.40;;
21148;SDS011;10732;51.472;6.466;2023-04-03T09:44:02;3.25;;;1.35;;
21148;SDS011;10732;51.472;6.466;2023-04-03T09:46:42;3.17;;;1.33;;
21148;SDS011;10732;51.472;6.466;2023-04-03T09:49:08;3.05;;;1.48;;
21148;SDS011;10732;51.472;6.466;2023-04-03T09:51:36;3.90;;;1.40;;
21148;SDS011;10732;51.472;6.466;2023-04-03T09:54:24;2.15;;;1.17;;
21148;SDS011;10732;51.472;6.466;2023-04-03T09:56:57;3.47;;;1.05;;
21148;SDS011;10732;51.472;6.466;2023-04-03T09:59:28;2.95;;;1.50;;
21148;SDS011;10732;51.472;6.466;2023-04-03T10:01:58;5.38;;;1.73;;
21148;SDS011;10732;51.472;6.466;2023-04-03T10:04:25;2.65;;;1.48;;
21148;SDS011;10732;51.472;6.466;2023-04-03T10:07:01;1.27;;;1.08;;
21148;SDS011;10732;51.472;6.466;2023-04-03T10:09:27;2.15;;;1.05;;
21148;SDS011;10732;51.472;6.466;2023-04-03T10:12:08;3.33;;;1.30;;
21148;SDS011;10732;51.472;6.466;2023-04-03T10:14:40;1.83;;;1.10;;
21148;SDS011;10732;51.472;6.466;2023-04-03T10:17:29;2.80;;;1.30;;
21148;SDS011;10732;51.472;6.466;2023-04-03T10:28:07;3.97;;;1.42;;
21148;SDS011;10732;51.472;6.466;2023-04-03T10:33:25;8.93;;;5.20;;
21148;SDS011;10732;51.472;6.466;2023-04-03T10:36:10;5.43;;;1.83;;
21148;SDS011;10732;51.472;6.466;2023-04-03T10:42:18;6.65;;;3.97;;
21148;SDS011;10732;51.472;6.466;2023-04-03T10:50:22;3.13;;;1.92;;
21148;SDS011;10732;51.472;6.466;2023-04-03T10:53:01;4.72;;;2.63;;
21148;SDS011;10732;51.472;6.466;2023-04-03T10:55:50;8.07;;;4.20;;
21148;SDS011;10732;51.472;6.466;2023-04-03T10:58:21;7.88;;;3.30;;
21148;SDS011;10732;51.472;6.466;2023-04-03T11:01:01;9.73;;;4.40;;
21148;SDS011;10732;51.472;6.466;2023-04-03T11:03:38;5.32;;;4.22;;
21148;SDS011;10732;51.472;6.466;2023-04-03T11:06:11;3.33;;;1.40;;
21148;SDS011;10732;51.472;6.466;2023-04-03T11:11:32;3.20;;;1.27;;
21148;SDS011;10732;51.472;6.466;2023-04-03T11:19:34;2.15;;;1.80;;
21148;SDS011;10732;51.472;6.466;2023-04-03T11:22:32;3.88;;;1.33;;
21148;SDS011;10732;51.472;6.466;2023-04-03T11:27:44;3.05;;;1.40;;
21148;SDS011;10732;51.472;6.466;2023-04-03T11:30:18;4.03;;;2.05;;
21148;SDS011;10732;51.472;6.466;2023-04-03T11:35:58;4.07;;;2.22;;
21148;SDS011;10732;51.472;6.466;2023-04-03T11:38:36;6.13;;;4.47;;
21148;SDS011;10732;51.472;6.466;2023-04-03T11:41:06;3.00;;;1.83;;
21148;SDS011;10732;51.472;6.466;2023-04-03T11:43:36;1.55;;;1.10;;
21148;SDS011;10732;51.472;6.466;2023-04-03T12:05:56;2.72;;;1.20;;
21148;SDS011;10732;51.472;6.466;2023-04-03T12:16:30;5.78;;;1.60;;
21148;SDS011;10732;51.472;6.466;2023-04-03T12:19:04;2.97;;;1.40;;
21148;SDS011;10732;51.472;6.466;2023-04-03T12:29:55;4.05;;;2.05;;
21148;SDS011;10732;51.472;6.466;2023-04-03T12:48:33;3.63;;;1.58;;
21148;SDS011;10732;51.472;6.466;2023-04-03T12:51:09;5.47;;;2.17;;
21148;SDS011;10732;51.472;6.466;2023-04-03T12:53:46;2.33;;;1.42;;
21148;SDS011;10732;51.472;6.466;2023-04-03T12:56:27;6.20;;;2.58;;
21148;SDS011;10732;51.472;6.466;2023-04-03T12:58:55;7.15;;;3.10;;
21148;SDS011;10732;51.472;6.466;2023-04-03T13:01:37;4.45;;;1.50;;
21148;SDS011;10732;51.472;6.466;2023-04-03T13:04:03;4.03;;;2.28;;
21148;SDS011;10732;51.472;6.466;2023-04-03T13:06:39;2.83;;;1.85;;
21148;SDS011;10732;51.472;6.466;2023-04-03T13:09:17;3.70;;;1.70;;
21148;SDS011;10732;51.472;6.466;2023-04-03T13:11:43;3.65;;;1.48;;
21148;SDS011;10732;51.472;6.466;2023-04-03T13:14:20;5.15;;;1.52;;
21148;SDS011;10732;51.472;6.466;2023-04-03T13:17:05;2.88;;;1.42;;
21148;SDS011;10732;51.472;6.466;2023-04-03T13:19:37;5.03;;;1.58;;
21148;SDS011;10732;51.472;6.466;2023-04-03T13:22:05;2.85;;;1.30;;
21148;SDS011;10732;51.472;6.466;2023-04-03T13:24:49;2.08;;;1.25;;
21148;SDS011;10732;51.472;6.466;2023-04-03T13:27:16;3.28;;;1.40;;
21148;SDS011;10732;51.472;6.466;2023-04-03T13:29:42;2.60;;;1.50;;
21148;SDS011;10732;51.472;6.466;2023-04-03T13:32:18;2.47;;;1.60;;
21148;SDS011;10732;51.472;6.466;2023-04-03T13:34:46;4.13;;;1.42;;
21148;SDS011;10732;51.472;6.466;2023-04-03T13:37:28;6.20;;;1.60;;
21148;SDS011;10732;51.472;6.466;2023-04-03T13:39:57;3.88;;;1.45;;
21148;SDS011;10732;51.472;6.466;2023-04-03T13:42:24;3.83;;;1.48;;
21148;SDS011;10732;51.472;6.466;2023-04-03T13:50:49;3.72;;;1.63;;
21148;SDS011;10732;51.472;6.466;2023-04-03T13:53:16;2.13;;;1.40;;
21148;SDS011;10732;51.472;6.466;2023-04-03T13:55:52;5.97;;;1.40;;
21148;SDS011;10732;51.472;6.466;2023-04-03T13:58:24;4.20;;;1.40;;
21148;SDS011;10732;51.472;6.466;2023-04-03T14:05:55;3.42;;;1.80;;
21148;SDS011;10732;51.472;6.466;2023-04-03T14:08:21;5.30;;;1.73;;
21148;SDS011;10732;51.472;6.466;2023-04-03T14:10:47;3.28;;;1.65;;
21148;SDS011;10732;51.472;6.466;2023-04-03T14:13:15;4.03;;;1.83;;
21148;SDS011;10732;51.472;6.466;2023-04-03T14:15:42;3.38;;;1.40;;
21148;SDS011;10732;51.472;6.466;2023-04-03T14:18:15;2.55;;;1.35;;
21148;SDS011;10732;51.472;6.466;2023-04-03T14:20:43;4.25;;;1.45;;
21148;SDS011;10732;51.472;6.466;2023-04-03T14:23:10;2.38;;;1.40;;
21148;SDS011;10732;51.472;6.466;2023-04-03T14:25:35;2.88;;;1.27;;
21148;SDS011;10732;51.472;6.466;2023-04-03T14:28:06;3.00;;;1.40;;
21148;SDS011;10732;51.472;6.466;2023-04-03T14:30:47;3.88;;;2.38;;
21148;SDS011;10732;51.472;6.466;2023-04-03T14:33:15;4.80;;;2.35;;
21148;SDS011;10732;51.472;6.466;2023-04-03T14:35:44;3.13;;;1.85;;
21148;SDS011;10732;51.472;6.466;2023-04-03T14:38:20;2.90;;;1.27;;
21148;SDS011;10732;51.472;6.466;2023-04-03T14:40:45;4.47;;;1.83;;
21148;SDS011;10732;51.472;6.466;2023-04-03T14:43:12;5.18;;;1.60;;
21148;SDS011;10732;51.472;6.466;2023-04-03T14:45:38;1.88;;;1.10;;
21148;SDS011;10732;51.472;6.466;2023-04-03T14:48:04;3.58;;;1.90;;
21148;SDS011;10732;51.472;6.466;2023-04-03T14:50:31;2.17;;;1.20;;
21148;SDS011;10732;51.472;6.466;2023-04-03T14:52:58;5.60;;;2.00;;
21148;SDS011;10732;51.472;6.466;2023-04-03T14:55:24;2.38;;;1.42;;
21148;SDS011;10732;51.472;6.466;2023-04-03T14:57:51;3.50;;;1.40;;
21148;SDS011;10732;51.472;6.466;2023-04-03T15:00:18;1.73;;;1.20;;
21148;SDS011;10732;51.472;6.466;2023-04-03T15:02:45;3.20;;;1.40;;
21148;SDS011;10732;51.472;6.466;2023-04-03T15:05:12;3.85;;;1.23;;
21148;SDS011;10732;51.472;6.466;2023-04-03T15:07:40;3.03;;;1.30;;
21148;SDS011;10732;51.472;6.466;2023-04-03T15:10:21;6.05;;;2.10;;
21148;SDS011;10732;51.472;6.466;2023-04-03T15:12:51;2.05;;;1.27;;
21148;SDS011;10732;51.472;6.466;2023-04-03T15:15:18;3.00;;;1.50;;
21148;SDS011;10732;51.472;6.466;2023-04-03T15:17:45;2.50;;;1.27;;
21148;SDS011;10732;51.472;6.466;2023-04-03T15:20:17;4.13;;;1.60;;
21148;SDS011;10732;51.472;6.466;2023-04-03T15:22:45;2.20;;;1.00;;
21148;SDS011;10732;51.472;6.466;2023-04-03T15:25:10;4.75;;;1.20;;
21148;SDS011;10732;51.472;6.466;2023-04-03T15:27:36;2.95;;;1.10;;
21148;SDS011;10732;51.472;6.466;2023-04-03T15:30:06;3.28;;;1.20;;
21148;SDS011;10732;51.472;6.466;2023-04-03T15:32:33;4.85;;;1.85;;
21148;SDS011;10732;51.472;6.466;2023-04-03T15:35:00;3.17;;;1.48;;
21148;SDS011;10732;51.472;6.466;2023-04-03T15:37:26;3.85;;;1.20;;
21148;SDS011;10732;51.472;6.466;2023-04-03T15:39:52;3.45;;;1.20;;
21148;SDS011;10732;51.472;6.466;2023-04-03T15:42:18;3.42;;;1.42;;
21148;SDS011;10732;51.472;6.466;2023-04-03T15:44:43;2.78;;;1.20;;
21148;SDS011;10732;51.472;6.466;2023-04-03T15:47:09;4.68;;;1.27;;
21148;SDS011;10732;51.472;6.466;2023-04-03T15:49:35;3.65;;;1.50;;
21148;SDS011;10732;51.472;6.466;2023-04-03T15:52:01;5.15;;;1.45;;
21148;SDS011;10732;51.472;6.466;2023-04-03T15:54:27;3.97;;;1.35;;
21148;SDS011;10732;51.472;6.466;2023-04-03T15:56:54;2.53;;;1.30;;
21148;SDS011;10732;51.472;6.466;2023-04-03T15:59:20;2.38;;;1.30;;
21148;SDS011;10732;51.472;6.466;2023-04-03T16:01:46;3.63;;;1.40;;
21148;SDS011;10732;51.472;6.466;2023-04-03T16:04:12;3.33;;;1.38;;
21148;SDS011;10732;51.472;6.466;2023-04-03T16:06:38;4.75;;;1.70;;
21148;SDS011;10732;51.472;6.466;2023-04-03T16:09:04;2.22;;;1.30;;
21148;SDS011;10732;51.472;6.466;2023-04-03T16:11:29;3.30;;;1.60;;
21148;SDS011;10732;51.472;6.466;2023-04-03T16:13:55;4.05;;;1.40;;
21148;SDS011;10732;51.472;6.466;2023-04-03T16:16:22;3.72;;;1.63;;
21148;SDS011;10732;51.472;6.466;2023-04-03T16:18:49;5.65;;;1.52;;
21148;SDS011;10732;51.472;6.466;2023-04-03T16:21:15;3.10;;;1.42;;
21148;SDS011;10732;51.472;6.466;2023-04-03T16:23:42;3.72;;;1.55;;
21148;SDS011;10732;51.472;6.466;2023-04-03T16:26:09;3.92;;;1.50;;
21148;SDS011;10732;51.472;6.466;2023-04-03T16:28:35;5.10;;;1.52;;
21148;SDS011;10732;51.472;6.466;2023-04-03T16:31:01;2.28;;;1.25;;
21148;SDS011;10732;51.472;6.466;2023-04-03T16:33:27;2.97;;;1.40;;
21148;SDS011;10732;51.472;6.466;2023-04-03T16:35:53;3.30;;;1.50;;
21148;SDS011;10732;51.472;6.466;2023-04-03T16:38:18;4.57;;;1.65;;
21148;SDS011;10732;51.472;6.466;2023-04-03T16:40:44;4.05;;;1.55;;
21148;SDS011;10732;51.472;6.466;2023-04-03T16:43:11;4.20;;;1.50;;
21148;SDS011;10732;51.472;6.466;2023-04-03T16:45:36;3.05;;;1.50;;
21148;SDS011;10732;51.472;6.466;2023-04-03T16:48:02;5.80;;;1.60;;
21148;SDS011;10732;51.472;6.466;2023-04-03T16:50:28;4.22;;;1.70;;
21148;SDS011;10732;51.472;6.466;2023-04-03T16:52:54;3.25;;;1.55;;
21148;SDS011;10732;51.472;6.466;2023-04-03T16:55:20;3.05;;;1.58;;
21148;SDS011;10732;51.472;6.466;2023-04-03T16:57:46;3.05;;;1.45;;